createdAt,value
2022-12-15T00:00:30.084Z,999.41
2022-12-15T00:01:30.041Z,999.41
2022-12-15T00:02:30.097Z,999.42
2022-12-15T00:03:30.564Z,999.44
2022-12-15T00:04:29.991Z,999.41
2022-12-15T00:05:29.981Z,999.42
2022-12-15T00:06:30.043Z,999.46
2022-12-15T00:07:29.968Z,999.47
2022-12-15T00:08:29.950Z,999.47
2022-12-15T00:09:31.110Z,999.48
2022-12-15T00:10:29.927Z,999.45
2022-12-15T00:11:29.918Z,999.48
2022-12-15T00:12:29.918Z,999.51
2022-12-15T00:13:30.448Z,999.53
2022-12-15T00:14:29.888Z,999.47
2022-12-15T00:15:29.877Z,999.49
2022-12-15T00:16:29.935Z,999.50
2022-12-15T00:17:29.890Z,999.50
2022-12-15T00:18:29.846Z,999.49
2022-12-15T00:19:29.855Z,999.56
2022-12-15T00:20:29.828Z,999.50
2022-12-15T00:21:29.816Z,999.62
2022-12-15T00:22:29.853Z,999.62
2022-12-15T00:23:30.256Z,999.65
2022-12-15T00:24:29.784Z,999.74
2022-12-15T00:25:29.772Z,999.71
2022-12-15T00:26:29.789Z,999.75
2022-12-15T00:27:29.752Z,999.74
2022-12-15T00:28:29.743Z,999.71
2022-12-15T00:29:29.731Z,999.70
2022-12-15T00:30:29.724Z,999.73
2022-12-15T00:31:29.770Z,999.68
2022-12-15T00:32:29.702Z,999.67
2022-12-15T00:33:30.169Z,999.67
2022-12-15T00:34:29.685Z,999.68
2022-12-15T00:35:29.670Z,999.67
2022-12-15T00:36:29.672Z,999.68
2022-12-15T00:37:29.651Z,999.68
2022-12-15T00:38:29.642Z,999.65
2022-12-15T00:39:29.627Z,999.64
2022-12-15T00:40:29.627Z,999.68
2022-12-15T00:41:29.618Z,999.67
2022-12-15T00:42:29.600Z,999.66
2022-12-15T00:43:30.027Z,999.70
2022-12-15T00:44:29.578Z,999.67
2022-12-15T00:45:29.565Z,999.64
2022-12-15T00:46:29.688Z,999.70
2022-12-15T00:47:29.547Z,999.69
2022-12-15T00:48:29.538Z,999.64
2022-12-15T00:49:29.554Z,999.70
2022-12-15T00:50:29.517Z,999.70
2022-12-15T00:51:29.534Z,999.67
2022-12-15T00:52:29.496Z,999.71
2022-12-15T00:53:30.007Z,999.65
2022-12-15T00:54:29.476Z,999.68
2022-12-15T00:55:29.463Z,999.62
2022-12-15T00:56:29.515Z,999.65
2022-12-15T00:57:29.445Z,999.64
2022-12-15T00:58:29.432Z,999.63
2022-12-15T00:59:29.425Z,999.65
2022-12-15T01:00:29.413Z,999.71
2022-12-15T01:01:29.705Z,999.75
2022-12-15T01:02:29.578Z,999.72
2022-12-15T01:03:30.096Z,999.73
2022-12-15T01:04:29.373Z,999.72
2022-12-15T01:05:29.384Z,999.72
2022-12-15T01:06:29.359Z,999.76
2022-12-15T01:07:29.341Z,999.81
2022-12-15T01:08:29.328Z,999.86
2022-12-15T01:09:29.320Z,999.84
2022-12-15T01:10:29.308Z,999.86
2022-12-15T01:11:29.314Z,999.90
2022-12-15T01:12:29.291Z,999.87
2022-12-15T01:13:29.754Z,999.89
2022-12-15T01:14:29.267Z,999.85
2022-12-15T01:15:29.259Z,999.83
2022-12-15T01:16:29.313Z,999.84
2022-12-15T01:17:29.238Z,999.80
2022-12-15T01:18:29.233Z,999.83
2022-12-15T01:19:29.217Z,999.84
2022-12-15T01:20:29.222Z,999.84
2022-12-15T01:21:29.227Z,999.88
2022-12-15T01:22:29.184Z,999.89
2022-12-15T01:23:29.621Z,999.87
2022-12-15T01:24:29.165Z,999.90
2022-12-15T01:25:29.171Z,999.83
2022-12-15T01:26:29.155Z,999.87
2022-12-15T01:27:29.145Z,999.88
2022-12-15T01:28:29.129Z,999.91
2022-12-15T01:29:29.118Z,999.85
2022-12-15T01:30:29.108Z,999.88
2022-12-15T01:31:29.206Z,999.93
2022-12-15T01:32:29.084Z,1000.02
2022-12-15T01:33:29.616Z,999.92
2022-12-15T01:34:29.063Z,999.84
2022-12-15T01:35:29.054Z,999.77
2022-12-15T01:36:29.052Z,999.83
2022-12-15T01:37:29.053Z,999.82
2022-12-15T01:38:29.028Z,999.83
2022-12-15T01:39:29.018Z,999.82
2022-12-15T01:40:29.003Z,999.82
2022-12-15T01:41:29.008Z,999.75
2022-12-15T01:42:28.982Z,999.79
2022-12-15T01:43:29.699Z,999.78
2022-12-15T01:44:28.962Z,999.74
2022-12-15T01:45:29.007Z,999.75
2022-12-15T01:46:29.011Z,999.79
2022-12-15T01:47:28.933Z,999.75
2022-12-15T01:48:28.927Z,999.76
2022-12-15T01:49:28.912Z,999.75
2022-12-15T01:50:28.918Z,999.77
2022-12-15T01:51:28.905Z,999.76
2022-12-15T01:52:28.881Z,999.82
2022-12-15T01:53:29.421Z,999.75
2022-12-15T01:54:28.862Z,999.80
2022-12-15T01:55:28.850Z,999.79
2022-12-15T01:56:33.850Z,999.78
2022-12-15T01:57:29.830Z,999.77
2022-12-15T01:58:28.818Z,999.78
2022-12-15T01:59:28.812Z,999.74
2022-12-15T02:00:28.867Z,999.73
2022-12-15T02:01:28.957Z,999.80
2022-12-15T02:02:28.839Z,999.80
2022-12-15T02:03:29.481Z,999.78
2022-12-15T02:04:28.760Z,999.79
2022-12-15T02:05:28.747Z,999.81
2022-12-15T02:06:28.753Z,999.82
2022-12-15T02:07:28.731Z,999.82
2022-12-15T02:08:28.719Z,999.84
2022-12-15T02:09:28.731Z,999.80
2022-12-15T02:10:28.695Z,999.82
2022-12-15T02:11:28.697Z,999.86
2022-12-15T02:12:28.675Z,999.82
2022-12-15T02:13:29.036Z,999.82
2022-12-15T02:14:28.655Z,999.79
2022-12-15T02:15:28.646Z,999.83
2022-12-15T02:16:28.766Z,999.86
2022-12-15T02:17:28.626Z,999.89
2022-12-15T02:18:28.612Z,999.88
2022-12-15T02:19:28.604Z,999.94
2022-12-15T02:20:28.591Z,999.92
2022-12-15T02:21:28.591Z,999.90
2022-12-15T02:22:28.574Z,999.98
2022-12-15T02:23:28.918Z,999.95
2022-12-15T02:24:28.551Z,1000.02
2022-12-15T02:25:28.566Z,1000.01
2022-12-15T02:26:28.581Z,1000.06
2022-12-15T02:27:28.522Z,1000.05
2022-12-15T02:28:28.510Z,1000.10
2022-12-15T02:29:28.501Z,1000.14
2022-12-15T02:30:28.491Z,1000.14
2022-12-15T02:31:28.547Z,1000.13
2022-12-15T02:32:28.469Z,1000.16
2022-12-15T02:33:28.936Z,1000.19
2022-12-15T02:34:28.450Z,1000.21
2022-12-15T02:35:28.440Z,1000.19
2022-12-15T02:36:28.440Z,1000.17
2022-12-15T02:37:28.424Z,1000.22
2022-12-15T02:38:28.410Z,1000.23
2022-12-15T02:39:28.400Z,1000.20
2022-12-15T02:40:28.392Z,1000.23
2022-12-15T02:41:28.413Z,1000.27
2022-12-15T02:42:28.366Z,1000.31
2022-12-15T02:43:28.872Z,1000.31
2022-12-15T02:44:28.345Z,1000.34
2022-12-15T02:45:28.409Z,1000.37
2022-12-15T02:46:28.334Z,1000.37
2022-12-15T02:47:28.317Z,1000.40
2022-12-15T02:48:28.305Z,1000.37
2022-12-15T02:49:28.294Z,1000.40
2022-12-15T02:50:28.287Z,1000.42
2022-12-15T02:51:28.288Z,1000.43
2022-12-15T02:52:28.264Z,1000.44
2022-12-15T02:53:28.577Z,1000.47
2022-12-15T02:54:28.243Z,1000.52
2022-12-15T02:55:28.235Z,1000.52
2022-12-15T02:56:28.236Z,1000.56
2022-12-15T02:57:28.236Z,1000.56
2022-12-15T02:58:28.204Z,1000.54
2022-12-15T02:59:28.194Z,1000.56
2022-12-15T03:00:28.181Z,1000.56
2022-12-15T03:01:28.330Z,1000.60
2022-12-15T03:02:28.310Z,1000.59
2022-12-15T03:03:28.514Z,1000.56
2022-12-15T03:04:28.145Z,1000.56
2022-12-15T03:05:28.131Z,1000.59
2022-12-15T03:06:28.131Z,1000.56
2022-12-15T03:07:28.145Z,1000.58
2022-12-15T03:08:28.101Z,1000.57
2022-12-15T03:09:28.095Z,1000.50
2022-12-15T03:10:28.080Z,1000.51
2022-12-15T03:11:28.082Z,1000.50
2022-12-15T03:12:28.060Z,1000.53
2022-12-15T03:13:28.426Z,1000.54
2022-12-15T03:14:28.039Z,1000.56
2022-12-15T03:15:31.830Z,1000.60
2022-12-15T03:16:29.075Z,1000.63
2022-12-15T03:17:28.011Z,1000.65
2022-12-15T03:18:27.997Z,1000.61
2022-12-15T03:19:27.991Z,1000.64
2022-12-15T03:20:27.980Z,1000.64
2022-12-15T03:21:27.978Z,1000.64
2022-12-15T03:22:27.980Z,1000.69
2022-12-15T03:23:28.401Z,1000.71
2022-12-15T03:24:27.938Z,1000.72
2022-12-15T03:25:27.928Z,1000.74
2022-12-15T03:26:27.925Z,1000.75
2022-12-15T03:27:27.907Z,1000.72
2022-12-15T03:28:27.897Z,1000.75
2022-12-15T03:29:27.906Z,1000.75
2022-12-15T03:30:27.874Z,1000.76
2022-12-15T03:31:27.936Z,1000.72
2022-12-15T03:32:27.860Z,1000.72
2022-12-15T03:33:28.313Z,1000.75
2022-12-15T03:34:27.836Z,1000.73
2022-12-15T03:35:27.835Z,1000.71
2022-12-15T03:36:27.844Z,1000.73
2022-12-15T03:37:27.807Z,1000.70
2022-12-15T03:38:27.793Z,1000.69
2022-12-15T03:39:27.786Z,1000.68
2022-12-15T03:40:27.786Z,1000.63
2022-12-15T03:41:27.775Z,1000.64
2022-12-15T03:42:27.753Z,1000.68
2022-12-15T03:43:27.962Z,1000.67
2022-12-15T03:44:27.732Z,1000.69
2022-12-15T03:45:27.753Z,1000.71
2022-12-15T03:46:27.770Z,1000.71
2022-12-15T03:47:27.706Z,1000.72
2022-12-15T03:48:27.691Z,1000.71
2022-12-15T03:49:27.681Z,1000.72
2022-12-15T03:50:27.669Z,1000.68
2022-12-15T03:51:27.674Z,1000.66
2022-12-15T03:52:27.650Z,1000.71
2022-12-15T03:53:27.830Z,1000.68
2022-12-15T03:54:27.631Z,1000.70
2022-12-15T03:55:27.619Z,1000.72
2022-12-15T03:56:27.630Z,1000.75
2022-12-15T03:57:27.600Z,1000.73
2022-12-15T03:58:27.590Z,1000.75
2022-12-15T03:59:27.583Z,1000.83
2022-12-15T04:00:27.590Z,1000.89
2022-12-15T04:01:27.812Z,1000.86
2022-12-15T04:02:27.769Z,1000.86
2022-12-15T04:03:27.783Z,1000.88
2022-12-15T04:04:27.527Z,1000.85
2022-12-15T04:05:27.524Z,1000.88
2022-12-15T04:06:27.515Z,1000.92
2022-12-15T04:07:27.499Z,1000.92
2022-12-15T04:08:27.503Z,1000.92
2022-12-15T04:09:27.483Z,1000.93
2022-12-15T04:10:33.603Z,1000.95
2022-12-15T04:11:28.496Z,1000.96
2022-12-15T04:12:27.446Z,1000.94
2022-12-15T04:13:27.610Z,1000.93
2022-12-15T04:14:27.425Z,1000.91
2022-12-15T04:15:27.418Z,1000.94
2022-12-15T04:16:27.438Z,1000.96
2022-12-15T04:17:27.413Z,1000.94
2022-12-15T04:18:27.385Z,1000.87
2022-12-15T04:19:27.380Z,1000.92
2022-12-15T04:20:27.372Z,1000.91
2022-12-15T04:21:27.356Z,1000.93
2022-12-15T04:22:27.351Z,1000.98
2022-12-15T04:23:27.603Z,1000.96
2022-12-15T04:24:27.321Z,1000.92
2022-12-15T04:25:27.315Z,1000.97
2022-12-15T04:26:27.305Z,1001.03
2022-12-15T04:27:27.304Z,1001.00
2022-12-15T04:28:27.286Z,1001.02
2022-12-15T04:29:27.274Z,1001.06
2022-12-15T04:30:27.260Z,1001.12
2022-12-15T04:31:27.357Z,1001.13
2022-12-15T04:32:27.249Z,1001.15
2022-12-15T04:33:30.737Z,1001.13
2022-12-15T04:34:27.221Z,1001.11
2022-12-15T04:35:27.211Z,1001.11
2022-12-15T04:36:27.201Z,1001.12
2022-12-15T04:37:27.215Z,1001.12
2022-12-15T04:38:27.180Z,1001.11
2022-12-15T04:39:27.170Z,1001.11
2022-12-15T04:40:27.169Z,1001.10
2022-12-15T04:41:27.151Z,1001.11
2022-12-15T04:42:27.152Z,1001.12
2022-12-15T04:43:27.134Z,1001.15
2022-12-15T04:44:27.116Z,1001.18
2022-12-15T04:45:27.111Z,1001.23
2022-12-15T04:46:27.207Z,1001.27
2022-12-15T04:47:27.102Z,1001.32
2022-12-15T04:48:27.076Z,1001.32
2022-12-15T04:49:27.095Z,1001.34
2022-12-15T04:50:27.065Z,1001.36
2022-12-15T04:51:27.045Z,1001.35
2022-12-15T04:52:27.046Z,1001.43
2022-12-15T04:53:27.077Z,1001.47
2022-12-15T04:54:27.018Z,1001.45
2022-12-15T04:55:27.008Z,1001.52
2022-12-15T04:56:27.044Z,1001.51
2022-12-15T04:57:27.006Z,1001.54
2022-12-15T04:58:26.974Z,1001.55
2022-12-15T04:59:26.970Z,1001.54
2022-12-15T05:00:26.956Z,1001.57
2022-12-15T05:01:27.110Z,1001.56
2022-12-15T05:02:27.101Z,1001.56
2022-12-15T05:03:26.930Z,1001.58
2022-12-15T05:04:26.983Z,1001.65
2022-12-15T05:05:26.922Z,1001.64
2022-12-15T05:06:26.909Z,1001.67
2022-12-15T05:07:26.895Z,1001.69
2022-12-15T05:08:26.901Z,1001.70
2022-12-15T05:09:26.863Z,1001.71
2022-12-15T05:10:26.858Z,1001.75
2022-12-15T05:11:26.842Z,1001.71
2022-12-15T05:12:26.847Z,1001.72
2022-12-15T05:13:26.836Z,1001.76
2022-12-15T05:14:26.817Z,1001.72
2022-12-15T05:15:26.854Z,1001.69
2022-12-15T05:16:26.875Z,1001.63
2022-12-15T05:17:26.832Z,1001.65
2022-12-15T05:18:26.781Z,1001.61
2022-12-15T05:19:26.764Z,1001.62
2022-12-15T05:20:26.799Z,1001.63
2022-12-15T05:21:26.850Z,1001.55
2022-12-15T05:22:26.749Z,1001.56
2022-12-15T05:23:26.824Z,1001.62
2022-12-15T05:24:26.711Z,1001.59
2022-12-15T05:25:26.699Z,1001.56
2022-12-15T05:26:26.695Z,1001.59
2022-12-15T05:27:26.700Z,1001.59
2022-12-15T05:28:26.671Z,1001.59
2022-12-15T05:29:26.659Z,1001.60
2022-12-15T05:30:26.650Z,1001.61
2022-12-15T05:31:26.679Z,1001.63
2022-12-15T05:33:36.538Z,1001.66
2022-12-15T05:34:36.529Z,1001.76
2022-12-15T05:35:36.536Z,1001.81
2022-12-15T05:36:36.520Z,1001.89
2022-12-15T05:37:36.496Z,1001.97
2022-12-15T05:38:36.478Z,1001.93
2022-12-15T05:39:36.467Z,1001.99
2022-12-15T05:40:36.455Z,1001.92
2022-12-15T05:41:36.446Z,1001.99
2022-12-15T05:42:36.464Z,1001.97
2022-12-15T05:43:36.431Z,1001.99
2022-12-15T05:44:36.417Z,1001.96
2022-12-15T05:45:36.406Z,1001.95
2022-12-15T05:46:36.495Z,1001.94
2022-12-15T05:47:36.400Z,1001.95
2022-12-15T05:48:36.374Z,1001.90
2022-12-15T05:49:36.365Z,1001.90
2022-12-15T05:50:36.353Z,1001.92
2022-12-15T05:51:36.349Z,1001.97
2022-12-15T05:52:36.459Z,1001.95
2022-12-15T05:53:36.332Z,1001.93
2022-12-15T05:54:36.315Z,1001.96
2022-12-15T05:55:36.306Z,1001.97
2022-12-15T05:56:36.299Z,1002.05
2022-12-15T05:57:36.301Z,1002.05
2022-12-15T05:58:40.059Z,1002.08
2022-12-15T05:59:37.268Z,1002.11
2022-12-15T06:00:36.258Z,1002.16
2022-12-15T06:01:36.292Z,1002.16
2022-12-15T06:02:36.255Z,1002.21
2022-12-15T06:03:36.240Z,1002.25
2022-12-15T06:04:36.288Z,1002.25
2022-12-15T06:05:36.210Z,1002.24
2022-12-15T06:06:36.196Z,1002.25
2022-12-15T06:07:36.204Z,1002.25
2022-12-15T06:08:36.223Z,1002.22
2022-12-15T06:09:36.169Z,1002.26
2022-12-15T06:10:36.155Z,1002.23
2022-12-15T06:11:36.184Z,1002.20
2022-12-15T06:12:36.141Z,1002.19
2022-12-15T06:13:36.126Z,1002.16
2022-12-15T06:14:36.113Z,1002.27
2022-12-15T06:15:36.106Z,1002.42
2022-12-15T06:16:40.964Z,1002.57
2022-12-15T06:17:37.113Z,1002.61
2022-12-15T06:18:36.074Z,1002.54
2022-12-15T06:19:36.069Z,1002.54
2022-12-15T06:20:36.052Z,1002.56
2022-12-15T06:21:36.078Z,1002.50
2022-12-15T06:22:36.051Z,1002.47
2022-12-15T06:23:36.031Z,1002.45
2022-12-15T06:24:36.143Z,1002.43
2022-12-15T06:25:36.005Z,1002.40
2022-12-15T06:26:36.037Z,1002.41
2022-12-15T06:27:36.000Z,1002.37
2022-12-15T06:28:35.972Z,1002.39
2022-12-15T06:29:35.963Z,1002.42
2022-12-15T06:30:35.953Z,1002.41
2022-12-15T06:31:36.018Z,1002.47
2022-12-15T06:32:35.953Z,1002.40
2022-12-15T06:33:35.926Z,1002.49
2022-12-15T06:34:35.915Z,1002.55
2022-12-15T06:35:35.905Z,1002.48
2022-12-15T06:36:35.901Z,1002.52
2022-12-15T06:37:35.899Z,1002.50
2022-12-15T06:38:35.872Z,1002.52
2022-12-15T06:39:35.871Z,1002.51
2022-12-15T06:40:38.196Z,1002.46
2022-12-15T06:41:35.844Z,1002.41
2022-12-15T06:42:35.847Z,1002.42
2022-12-15T06:43:35.876Z,1002.43
2022-12-15T06:44:35.816Z,1002.45
2022-12-15T06:45:35.815Z,1002.41
2022-12-15T06:46:35.900Z,1002.49
2022-12-15T06:47:35.799Z,1002.42
2022-12-15T06:48:35.773Z,1002.42
2022-12-15T06:49:35.764Z,1002.44
2022-12-15T06:50:35.750Z,1002.51
2022-12-15T06:51:35.748Z,1002.49
2022-12-15T06:52:35.752Z,1002.48
2022-12-15T06:53:35.812Z,1002.54
2022-12-15T06:54:35.711Z,1002.46
2022-12-15T06:55:35.713Z,1002.49
2022-12-15T06:56:35.733Z,1002.51
2022-12-15T06:57:35.720Z,1002.62
2022-12-15T06:58:35.695Z,1002.64
2022-12-15T06:59:35.672Z,1002.66
2022-12-15T07:00:35.705Z,1002.74
2022-12-15T07:01:35.980Z,1002.75
2022-12-15T07:02:35.852Z,1002.79
2022-12-15T07:03:36.141Z,1002.79
2022-12-15T07:04:35.612Z,1002.84
2022-12-15T07:05:35.615Z,1002.77
2022-12-15T07:06:35.591Z,1002.82
2022-12-15T07:07:35.588Z,1002.85
2022-12-15T07:08:41.459Z,1002.82
2022-12-15T07:09:36.562Z,1002.84
2022-12-15T07:10:35.550Z,1002.80
2022-12-15T07:11:35.575Z,1002.81
2022-12-15T07:12:35.549Z,1002.86
2022-12-15T07:13:35.549Z,1002.90
2022-12-15T07:14:35.535Z,1002.87
2022-12-15T07:15:35.505Z,1002.99
2022-12-15T07:16:35.597Z,1003.09
2022-12-15T07:17:35.494Z,1003.16
2022-12-15T07:18:35.487Z,1003.16
2022-12-15T07:19:35.495Z,1003.25
2022-12-15T07:20:35.463Z,1003.26
2022-12-15T07:21:35.458Z,1003.30
2022-12-15T07:22:35.430Z,1003.28
2022-12-15T07:23:53.210Z,1003.26
2022-12-15T07:24:36.411Z,1003.25
2022-12-15T07:25:35.406Z,1003.27
2022-12-15T07:26:35.405Z,1003.28
2022-12-15T07:27:35.385Z,1003.28
2022-12-15T07:28:35.402Z,1003.25
2022-12-15T07:29:35.365Z,1003.26
2022-12-15T07:30:38.939Z,1003.25
2022-12-15T07:31:35.396Z,1003.27
2022-12-15T07:32:35.343Z,1003.27
2022-12-15T07:33:35.336Z,1003.28
2022-12-15T07:34:35.315Z,1003.27
2022-12-15T07:35:35.301Z,1003.29
2022-12-15T07:36:35.303Z,1003.36
2022-12-15T07:37:35.289Z,1003.33
2022-12-15T07:38:35.284Z,1003.32
2022-12-15T07:39:35.261Z,1003.44
2022-12-15T07:40:35.250Z,1003.45
2022-12-15T07:41:35.260Z,1003.42
2022-12-15T07:42:35.233Z,1003.46
2022-12-15T07:43:36.015Z,1003.45
2022-12-15T07:44:35.312Z,1003.42
2022-12-15T07:45:35.273Z,1003.43
2022-12-15T07:46:35.311Z,1003.38
2022-12-15T07:47:35.180Z,1003.38
2022-12-15T07:48:35.179Z,1003.41
2022-12-15T07:49:35.167Z,1003.41
2022-12-15T07:50:35.149Z,1003.42
2022-12-15T07:51:35.139Z,1003.44
2022-12-15T07:52:35.128Z,1003.43
2022-12-15T07:53:35.627Z,1003.47
2022-12-15T07:54:35.113Z,1003.52
2022-12-15T07:56:04.884Z,1003.52
2022-12-15T07:56:39.293Z,1003.52
2022-12-15T07:57:35.080Z,1003.52
2022-12-15T07:58:35.102Z,1003.60
2022-12-15T07:59:35.060Z,1003.57
2022-12-15T08:00:35.092Z,1003.58
2022-12-15T08:01:35.108Z,1003.50
2022-12-15T08:02:35.302Z,1003.52
2022-12-15T08:03:35.665Z,1003.53
2022-12-15T08:04:35.005Z,1003.56
2022-12-15T08:05:34.994Z,1003.52
2022-12-15T08:06:34.986Z,1003.52
2022-12-15T08:07:34.975Z,1003.52
2022-12-15T08:08:42.031Z,1003.55
2022-12-15T08:09:42.661Z,1003.53
2022-12-15T08:11:52.102Z,1003.72
2022-12-15T08:12:52.081Z,1003.72
2022-12-15T08:14:02.475Z,1003.68
2022-12-15T08:14:53.063Z,1003.67
2022-12-15T08:15:52.084Z,1003.65
2022-12-15T08:16:52.116Z,1003.71
2022-12-15T08:17:52.031Z,1003.67
2022-12-15T08:18:52.035Z,1003.72
2022-12-15T08:19:55.759Z,1003.67
2022-12-15T08:20:53.003Z,1003.73
2022-12-15T08:21:51.992Z,1003.67
2022-12-15T08:22:51.977Z,1003.71
2022-12-15T08:25:01.872Z,1003.73
2022-12-15T08:26:01.847Z,1003.69
2022-12-15T08:27:01.889Z,1003.69
2022-12-15T08:28:01.828Z,1003.73
2022-12-15T08:29:24.367Z,1003.73
2022-12-15T08:30:02.806Z,1003.82
2022-12-15T08:31:01.817Z,1003.88
2022-12-15T08:32:02.049Z,1003.84
2022-12-15T08:33:01.772Z,1003.88
2022-12-15T08:34:01.783Z,1003.89
2022-12-15T08:35:01.757Z,1003.88
2022-12-15T08:36:01.746Z,1003.87
2022-12-15T08:37:01.754Z,1003.86
2022-12-15T08:38:05.718Z,1003.88
2022-12-15T08:39:08.775Z,1003.92
2022-12-15T08:40:01.700Z,1003.93
2022-12-15T08:41:01.691Z,1003.91
2022-12-15T08:42:01.686Z,1003.93
2022-12-15T08:43:01.670Z,1003.86
2022-12-15T08:44:01.762Z,1003.91
2022-12-15T08:45:01.645Z,1003.93
2022-12-15T08:46:01.664Z,1003.92
2022-12-15T08:47:01.643Z,1003.96
2022-12-15T08:48:01.613Z,1003.96
2022-12-15T08:49:01.642Z,1003.93
2022-12-15T08:50:01.595Z,1003.98
2022-12-15T08:51:01.584Z,1003.96
2022-12-15T08:52:01.573Z,1003.96
2022-12-15T08:53:29.672Z,1003.91
2022-12-15T08:54:02.565Z,1003.87
2022-12-15T08:55:01.549Z,1003.89
2022-12-15T08:56:01.532Z,1003.90
2022-12-15T08:57:01.528Z,1003.88
2022-12-15T08:58:01.510Z,1003.94
2022-12-15T08:59:01.533Z,1003.93
2022-12-15T09:00:01.487Z,1003.96
2022-12-15T09:01:01.547Z,1003.91
2022-12-15T09:02:01.749Z,1003.97
2022-12-15T09:03:01.476Z,1003.89
2022-12-15T09:04:01.737Z,1003.93
2022-12-15T09:05:01.435Z,1004.01
2022-12-15T09:06:01.451Z,1004.00
2022-12-15T09:07:01.415Z,1004.03
2022-12-15T09:08:06.316Z,1004.02
2022-12-15T09:09:02.442Z,1004.04
2022-12-15T09:10:01.381Z,1004.05
2022-12-15T09:11:01.373Z,1004.09
2022-12-15T09:12:01.358Z,1004.03
2022-12-15T09:13:01.348Z,1004.05
2022-12-15T09:14:01.350Z,1004.04
2022-12-15T09:15:01.334Z,1004.05
2022-12-15T09:16:11.498Z,1004.04
2022-12-15T09:17:02.351Z,1004.08
2022-12-15T09:18:01.293Z,1004.10
2022-12-15T09:19:01.341Z,1004.11
2022-12-15T09:20:01.290Z,1004.10
2022-12-15T09:21:01.262Z,1004.07
2022-12-15T09:22:01.249Z,1004.12
2022-12-15T09:23:01.241Z,1004.13
2022-12-15T09:24:01.250Z,1004.09
2022-12-15T09:25:01.222Z,1004.03
2022-12-15T09:26:01.210Z,1004.00
2022-12-15T09:27:01.201Z,1004.05
2022-12-15T09:28:01.190Z,1004.04
2022-12-15T09:29:01.188Z,1004.08
2022-12-15T09:30:01.179Z,1004.13
2022-12-15T09:31:01.208Z,1004.19
2022-12-15T09:32:01.147Z,1004.15
2022-12-15T09:33:01.135Z,1004.10
2022-12-15T09:34:01.136Z,1004.14
2022-12-15T09:35:01.137Z,1004.13
2022-12-15T09:36:01.097Z,1004.14
2022-12-15T09:37:01.089Z,1004.13
2022-12-15T09:38:01.078Z,1004.13
2022-12-15T09:39:01.080Z,1004.10
2022-12-15T09:40:01.072Z,1004.17
2022-12-15T09:41:01.050Z,1004.09
2022-12-15T09:42:01.035Z,1004.09
2022-12-15T09:43:32.926Z,1004.08
2022-12-15T09:44:02.029Z,1004.01
2022-12-15T09:45:01.006Z,1004.03
2022-12-15T09:46:01.041Z,1004.03
2022-12-15T09:47:00.978Z,1004.02
2022-12-15T09:48:00.974Z,1004.02
2022-12-15T09:49:00.973Z,1004.07
2022-12-15T09:50:00.954Z,1004.07
2022-12-15T09:51:00.955Z,1004.10
2022-12-15T09:52:01.062Z,1004.13
2022-12-15T09:53:00.914Z,1004.14
2022-12-15T09:54:01.457Z,1004.18
2022-12-15T09:55:00.929Z,1004.18
2022-12-15T09:56:00.880Z,1004.25
2022-12-15T09:57:01.024Z,1004.22
2022-12-15T09:58:01.471Z,1004.29
2022-12-15T09:59:00.864Z,1004.21
2022-12-15T10:00:00.841Z,1004.18
2022-12-15T10:01:00.829Z,1004.20
2022-12-15T10:02:00.896Z,1004.20
2022-12-15T10:03:01.047Z,1004.25
2022-12-15T10:04:01.018Z,1004.22
2022-12-15T10:05:00.787Z,1004.28
2022-12-15T10:07:01.777Z,1004.26
2022-12-15T10:08:00.749Z,1004.29
2022-12-15T10:09:00.755Z,1004.14
2022-12-15T10:10:00.730Z,1004.21
2022-12-15T10:11:00.717Z,1004.18
2022-12-15T10:12:00.740Z,1004.14
2022-12-15T10:13:02.509Z,1004.19
2022-12-15T10:14:00.698Z,1004.30
2022-12-15T10:15:00.682Z,1004.23
2022-12-15T10:16:00.773Z,1004.12
2022-12-15T10:17:00.652Z,1004.13
2022-12-15T10:18:00.647Z,1004.15
2022-12-15T10:20:01.617Z,1004.20
2022-12-15T10:21:00.609Z,1004.17
2022-12-15T10:22:00.600Z,1004.15
2022-12-15T10:23:00.618Z,1004.23
2022-12-15T10:24:00.716Z,1004.21
2022-12-15T10:25:09.570Z,1004.27
2022-12-15T10:26:01.559Z,1004.28
2022-12-15T10:27:00.546Z,1004.31
2022-12-15T10:28:00.533Z,1004.29
2022-12-15T10:29:00.541Z,1004.29
2022-12-15T10:30:00.670Z,1004.29
2022-12-15T10:31:00.639Z,1004.29
2022-12-15T10:32:00.489Z,1004.29
2022-12-15T10:33:00.484Z,1004.26
2022-12-15T10:34:00.479Z,1004.35
2022-12-15T10:35:00.537Z,1004.30
2022-12-15T10:36:00.455Z,1004.31
2022-12-15T10:37:00.479Z,1004.25
2022-12-15T10:38:00.431Z,1004.20
2022-12-15T10:39:00.448Z,1004.29
2022-12-15T10:40:00.442Z,1004.24
2022-12-15T10:41:00.393Z,1004.32
2022-12-15T10:42:00.398Z,1004.28
2022-12-15T10:43:00.384Z,1004.27
2022-12-15T10:44:00.380Z,1004.26
2022-12-15T10:45:00.375Z,1004.30
2022-12-15T10:46:00.446Z,1004.25
2022-12-15T10:47:00.336Z,1004.28
2022-12-15T10:48:00.321Z,1004.30
2022-12-15T10:49:00.330Z,1004.28
2022-12-15T10:50:00.298Z,1004.31
2022-12-15T10:51:00.291Z,1004.31
2022-12-15T10:52:00.277Z,1004.32
2022-12-15T10:53:00.266Z,1004.36
2022-12-15T10:54:00.273Z,1004.35
2022-12-15T10:55:00.259Z,1004.35
2022-12-15T10:56:00.235Z,1004.40
2022-12-15T10:57:00.227Z,1004.39
2022-12-15T10:58:00.213Z,1004.43
2022-12-15T10:59:00.223Z,1004.49
2022-12-15T11:00:00.194Z,1004.45
2022-12-15T11:01:00.181Z,1004.42
2022-12-15T11:02:00.380Z,1004.49
2022-12-15T11:03:00.556Z,1004.50
2022-12-15T11:04:00.469Z,1004.52
2022-12-15T11:05:00.150Z,1004.53
2022-12-15T11:06:00.133Z,1004.57
2022-12-15T11:07:00.121Z,1004.53
2022-12-15T11:08:00.109Z,1004.52
2022-12-15T11:09:00.112Z,1004.54
2022-12-15T11:10:00.097Z,1004.51
2022-12-15T11:11:00.093Z,1004.54
2022-12-15T11:12:00.132Z,1004.55
2022-12-15T11:13:00.085Z,1004.58
2022-12-15T11:14:00.081Z,1004.62
2022-12-15T11:15:00.036Z,1004.68
2022-12-15T11:16:00.022Z,1004.67
2022-12-15T11:17:00.014Z,1004.70
2022-12-15T11:18:00.003Z,1004.67
2022-12-15T11:18:59.995Z,1004.66
2022-12-15T11:20:03.134Z,1004.69
2022-12-15T11:20:59.971Z,1004.70
2022-12-15T11:21:59.958Z,1004.71
2022-12-15T11:22:59.950Z,1004.67
2022-12-15T11:23:59.941Z,1004.72
2022-12-15T11:24:59.975Z,1004.70
2022-12-15T11:26:04.945Z,1004.71
2022-12-15T11:27:00.936Z,1004.77
2022-12-15T11:27:59.896Z,1004.73
2022-12-15T11:28:59.895Z,1004.73
2022-12-15T11:29:59.904Z,1004.71
2022-12-15T11:30:59.867Z,1004.72
2022-12-15T11:32:05.012Z,1004.66
2022-12-15T11:33:00.848Z,1004.62
2022-12-15T11:33:59.836Z,1004.62
2022-12-15T11:34:59.842Z,1004.65
2022-12-15T11:35:59.813Z,1004.62
2022-12-15T11:36:59.808Z,1004.60
2022-12-15T11:37:59.792Z,1004.60
2022-12-15T11:38:59.825Z,1004.61
2022-12-15T11:39:59.788Z,1004.59
2022-12-15T11:40:59.762Z,1004.61
2022-12-15T11:41:59.750Z,1004.62
2022-12-15T11:42:59.793Z,1004.65
2022-12-15T11:44:04.266Z,1004.67
2022-12-15T11:45:00.736Z,1004.67
2022-12-15T11:45:59.711Z,1004.66
2022-12-15T11:46:59.703Z,1004.68
2022-12-15T11:47:59.695Z,1004.64
2022-12-15T11:48:59.701Z,1004.69
2022-12-15T11:49:59.687Z,1004.65
2022-12-15T11:50:59.659Z,1004.62
2022-12-15T11:51:59.653Z,1004.63
2022-12-15T11:52:59.651Z,1004.65
2022-12-15T11:53:59.629Z,1004.64
2022-12-15T11:54:59.634Z,1004.64
2022-12-15T11:55:59.609Z,1004.58
2022-12-15T11:56:59.600Z,1004.63
2022-12-15T11:57:59.581Z,1004.59
2022-12-15T11:58:59.656Z,1004.60
2022-12-15T11:59:59.578Z,1004.60
2022-12-15T12:00:59.553Z,1004.59
2022-12-15T12:02:03.269Z,1004.57
2022-12-15T12:02:59.567Z,1004.59
2022-12-15T12:03:59.534Z,1004.53
2022-12-15T12:04:59.529Z,1004.51
2022-12-15T12:05:59.500Z,1004.47
2022-12-15T12:06:59.491Z,1004.50
2022-12-15T12:07:59.480Z,1004.46
2022-12-15T12:08:59.482Z,1004.46
2022-12-15T12:09:59.475Z,1004.44
2022-12-15T12:10:59.534Z,1004.48
2022-12-15T12:11:59.444Z,1004.47
2022-12-15T12:12:59.442Z,1004.47
2022-12-15T12:13:59.428Z,1004.48
2022-12-15T12:14:59.437Z,1004.48
2022-12-15T12:15:59.404Z,1004.50